createdAt,value
2019-01-19T00:00:03.521Z,43.20
2019-01-19T00:02:30.365Z,43.20
2019-01-19T00:04:56.877Z,43.10
2019-01-19T00:07:23.434Z,43.20
2019-01-19T00:09:49.968Z,43.20
2019-01-19T00:12:16.808Z,43.20
2019-01-19T00:14:43.343Z,43.10
2019-01-19T00:17:09.884Z,43.10
2019-01-19T00:19:36.412Z,43.10
2019-01-19T00:22:02.947Z,43.10
2019-01-19T00:24:29.788Z,43.00
2019-01-19T00:26:56.324Z,43.10
2019-01-19T00:29:23.165Z,43.20
2019-01-19T00:31:49.702Z,43.10
2019-01-19T00:34:16.233Z,43.10
2019-01-19T00:36:43.063Z,43.10
2019-01-19T00:39:09.609Z,43.00
2019-01-19T00:41:36.145Z,43.10
2019-01-19T00:44:02.679Z,43.00
2019-01-19T00:46:29.521Z,43.10
2019-01-19T00:48:56.354Z,43.00
2019-01-19T00:51:23.206Z,43.10
2019-01-19T00:53:49.746Z,43.00
2019-01-19T00:56:16.580Z,43.00
2019-01-19T00:58:43.114Z,43.10
2019-01-19T01:01:09.957Z,43.00
2019-01-19T01:03:36.511Z,43.00
2019-01-19T01:06:03.335Z,43.00
2019-01-19T01:08:30.179Z,43.00
2019-01-19T01:10:57.018Z,43.00
2019-01-19T01:13:23.554Z,43.00
2019-01-19T01:15:50.394Z,43.00
2019-01-19T01:18:16.929Z,43.00
2019-01-19T01:20:43.768Z,43.00
2019-01-19T01:23:10.304Z,43.00
2019-01-19T01:25:37.145Z,43.00
2019-01-19T01:28:03.679Z,43.10
2019-01-19T01:30:30.218Z,43.00
2019-01-19T01:32:56.750Z,43.00
2019-01-19T01:35:23.285Z,43.00
2019-01-19T01:37:50.125Z,43.00
2019-01-19T01:40:16.662Z,43.00
2019-01-19T01:42:43.500Z,43.00
2019-01-19T01:45:10.035Z,43.00
2019-01-19T01:47:36.572Z,43.00
2019-01-19T01:50:03.105Z,43.00
2019-01-19T01:52:29.946Z,43.00
2019-01-19T01:54:56.787Z,43.00
2019-01-19T01:57:23.323Z,42.90
2019-01-19T01:59:49.857Z,43.00
2019-01-19T02:02:16.699Z,43.00
2019-01-19T02:04:43.543Z,42.90
2019-01-19T02:07:10.067Z,43.00
2019-01-19T02:09:36.916Z,43.00
2019-01-19T02:12:03.450Z,43.00
2019-01-19T02:14:30.295Z,43.00
2019-01-19T02:16:57.133Z,43.00
2019-01-19T02:19:23.672Z,43.00
2019-01-19T02:21:50.207Z,43.00
2019-01-19T02:24:17.045Z,43.00
2019-01-19T02:26:43.581Z,42.90
2019-01-19T02:29:10.114Z,42.90
2019-01-19T02:31:36.957Z,42.90
2019-01-19T02:34:03.495Z,42.90
2019-01-19T02:36:30.030Z,42.90
2019-01-19T02:38:57.162Z,42.90
2019-01-19T02:41:23.709Z,42.90
2019-01-19T02:43:50.253Z,42.90
2019-01-19T02:46:17.087Z,42.80
2019-01-19T02:48:43.621Z,42.90
2019-01-19T02:51:10.129Z,42.80
2019-01-19T02:53:37.000Z,42.80
2019-01-19T02:56:03.545Z,42.80
2019-01-19T02:58:30.374Z,42.80
2019-01-19T03:00:57.222Z,42.80
2019-01-19T03:03:23.760Z,42.80
2019-01-19T03:05:56.090Z,42.80
2019-01-19T03:08:18.661Z,42.80
2019-01-19T03:10:45.195Z,42.80
2019-01-19T03:13:12.041Z,42.80
2019-01-19T03:15:38.572Z,42.80
2019-01-19T03:18:05.412Z,42.80
2019-01-19T03:20:31.946Z,42.80
2019-01-19T03:22:58.458Z,42.80
2019-01-19T03:25:25.018Z,43.50
2019-01-19T03:27:51.499Z,42.80
2019-01-19T03:30:18.398Z,42.80
2019-01-19T03:32:44.938Z,42.80
2019-01-19T03:35:11.770Z,42.80
2019-01-19T03:37:38.310Z,42.80
2019-01-19T03:40:04.840Z,42.80
2019-01-19T03:42:31.683Z,42.80
2019-01-19T03:44:58.220Z,42.80
2019-01-19T03:47:24.748Z,42.80
2019-01-19T03:49:51.592Z,42.70
2019-01-19T03:52:18.125Z,42.80
2019-01-19T03:54:44.663Z,42.70
2019-01-19T03:57:11.504Z,42.70
2019-01-19T03:59:38.344Z,42.70
2019-01-19T04:02:04.877Z,42.80
2019-01-19T04:04:31.725Z,42.70
2019-01-19T04:06:58.254Z,43.10
2019-01-19T04:09:24.793Z,43.40
2019-01-19T04:11:51.324Z,42.70
2019-01-19T04:14:17.857Z,42.60
2019-01-19T04:16:44.702Z,42.80
2019-01-19T04:19:11.546Z,42.70
2019-01-19T04:21:38.382Z,42.70
2019-01-19T04:24:04.917Z,42.70
2019-01-19T04:26:31.452Z,42.70
2019-01-19T04:28:57.987Z,42.60
2019-01-19T04:31:24.828Z,42.60
2019-01-19T04:33:51.374Z,42.60
2019-01-19T04:36:21.783Z,42.60
2019-01-19T04:38:46.279Z,42.70
2019-01-19T04:41:12.817Z,42.60
2019-01-19T04:43:39.343Z,42.60
2019-01-19T04:46:05.958Z,42.60
2019-01-19T04:48:32.721Z,42.70
2019-01-19T04:50:59.254Z,42.60
2019-01-19T04:53:26.097Z,42.70
2019-01-19T04:55:52.632Z,42.60
2019-01-19T04:58:19.165Z,42.60
2019-01-19T05:00:45.701Z,42.60
2019-01-19T05:03:12.235Z,42.60
2019-01-19T05:05:38.768Z,42.60
2019-01-19T05:08:05.303Z,42.60
2019-01-19T05:10:32.144Z,42.60
2019-01-19T05:12:58.680Z,42.60
2019-01-19T05:15:25.217Z,42.60
2019-01-19T05:17:51.749Z,42.70
2019-01-19T05:20:18.283Z,42.60
2019-01-19T05:22:44.830Z,42.60
2019-01-19T05:25:11.353Z,42.60
2019-01-19T05:27:37.888Z,42.60
2019-01-19T05:30:04.423Z,42.60
2019-01-19T05:32:30.955Z,42.60
2019-01-19T05:34:57.801Z,42.60
2019-01-19T05:37:24.336Z,42.60
2019-01-19T05:39:50.876Z,42.60
2019-01-19T05:42:17.399Z,42.60
2019-01-19T05:44:44.878Z,42.60
2019-01-19T05:47:11.701Z,42.60
2019-01-19T05:49:38.235Z,42.60
2019-01-19T05:52:04.769Z,42.60
2019-01-19T05:54:31.656Z,42.60
2019-01-19T05:56:58.454Z,42.70
2019-01-19T05:59:24.990Z,42.60
2019-01-19T06:01:51.519Z,42.60
2019-01-19T06:04:18.366Z,42.50
2019-01-19T06:06:46.950Z,42.70
2019-01-19T06:09:13.273Z,42.60
2019-01-19T06:11:39.808Z,42.60
2019-01-19T06:14:06.346Z,42.60
2019-01-19T06:16:33.189Z,42.50
2019-01-19T06:18:59.720Z,42.50
2019-01-19T06:21:26.563Z,42.60
2019-01-19T06:23:53.096Z,42.60
2019-01-19T06:26:19.936Z,42.60
2019-01-19T06:28:46.778Z,42.50
2019-01-19T06:31:13.620Z,42.50
2019-01-19T06:33:40.154Z,42.50
2019-01-19T06:36:06.689Z,42.50
2019-01-19T06:38:33.226Z,42.60
2019-01-19T06:40:59.798Z,42.50
2019-01-19T06:43:26.599Z,42.50
2019-01-19T06:45:53.135Z,42.60
2019-01-19T06:48:19.669Z,42.50
2019-01-19T06:50:46.204Z,42.50
2019-01-19T06:53:12.738Z,42.50
2019-01-19T06:55:39.272Z,42.50
2019-01-19T06:58:05.813Z,42.50
2019-01-19T07:00:32.647Z,42.50
2019-01-19T07:02:59.493Z,42.50
2019-01-19T07:05:26.030Z,42.40
2019-01-19T07:07:52.568Z,42.40
2019-01-19T07:10:19.403Z,42.40
2019-01-19T07:12:46.245Z,42.50
2019-01-19T07:15:12.781Z,42.40
2019-01-19T07:17:39.314Z,42.40
2019-01-19T07:20:05.848Z,42.40
2019-01-19T07:22:32.381Z,42.40
2019-01-19T07:24:58.918Z,42.40
2019-01-19T07:27:25.427Z,42.40
2019-01-19T07:29:51.987Z,42.30
2019-01-19T07:32:18.518Z,42.40
2019-01-19T07:34:45.052Z,42.30
2019-01-19T07:37:11.899Z,42.40
2019-01-19T07:39:38.432Z,42.40
2019-01-19T07:42:05.274Z,42.30
2019-01-19T07:44:31.806Z,42.30
2019-01-19T07:46:58.340Z,42.30
2019-01-19T07:49:25.184Z,42.30
2019-01-19T07:51:51.716Z,42.30
2019-01-19T07:54:18.557Z,42.30
2019-01-19T07:56:45.097Z,42.30
2019-01-19T07:59:11.627Z,42.20
2019-01-19T08:01:38.302Z,42.30
2019-01-19T08:04:05.005Z,42.40
2019-01-19T08:06:31.845Z,42.20
2019-01-19T08:08:58.381Z,42.20
2019-01-19T08:11:25.220Z,42.10
2019-01-19T08:13:51.755Z,42.10
2019-01-19T08:16:18.293Z,42.00
2019-01-19T08:18:45.132Z,42.00
2019-01-19T08:21:11.672Z,41.90
2019-01-19T08:23:38.201Z,41.80
2019-01-19T08:26:05.046Z,41.70
2019-01-19T08:28:31.887Z,41.70
2019-01-19T08:30:58.521Z,41.60
2019-01-19T08:33:25.260Z,41.50
2019-01-19T08:35:52.108Z,41.50
2019-01-19T08:38:18.943Z,41.30
2019-01-19T08:40:45.478Z,41.30
2019-01-19T08:43:12.012Z,41.30
2019-01-19T08:45:38.857Z,41.30
2019-01-19T08:48:05.697Z,41.30
2019-01-19T08:50:32.233Z,41.20
2019-01-19T08:52:59.073Z,41.20
2019-01-19T08:55:25.923Z,41.10
2019-01-19T08:57:52.760Z,41.00
2019-01-19T09:00:19.290Z,41.00
2019-01-19T09:02:45.828Z,40.80
2019-01-19T09:05:12.669Z,40.80
2019-01-19T09:07:39.206Z,40.70
2019-01-19T09:10:06.043Z,40.70
2019-01-19T09:12:32.883Z,40.50
2019-01-19T09:14:59.726Z,40.50
2019-01-19T09:17:26.592Z,40.50
2019-01-19T09:19:53.106Z,40.40
2019-01-19T09:22:19.640Z,40.40
2019-01-19T09:24:46.174Z,40.30
2019-01-19T09:27:13.013Z,40.30
2019-01-19T09:29:40.315Z,40.20
2019-01-19T09:32:07.003Z,40.10
2019-01-19T09:34:34.137Z,40.00
2019-01-19T09:37:00.997Z,39.90
2019-01-19T09:39:27.529Z,39.90
2019-01-19T09:41:54.380Z,39.90
2019-01-19T09:44:21.007Z,39.80
2019-01-19T09:46:47.531Z,39.80
2019-01-19T09:49:14.164Z,39.70
2019-01-19T09:51:40.816Z,39.60
2019-01-19T09:54:07.657Z,39.60
2019-01-19T09:56:34.194Z,39.40
2019-01-19T09:59:00.727Z,39.40
2019-01-19T10:01:27.263Z,39.40
2019-01-19T10:03:53.797Z,39.30
2019-01-19T10:06:20.650Z,39.30
2019-01-19T10:08:47.267Z,39.30
2019-01-19T10:11:14.014Z,39.20
2019-01-19T10:13:40.858Z,39.20
2019-01-19T10:16:07.846Z,39.30
2019-01-19T10:18:34.540Z,39.20
2019-01-19T10:21:01.073Z,39.10
2019-01-19T10:23:27.585Z,39.10
2019-01-19T10:25:54.166Z,39.00
2019-01-19T10:28:20.687Z,39.00
2019-01-19T10:30:47.187Z,38.90
2019-01-19T10:33:14.052Z,38.90
2019-01-19T10:35:40.636Z,38.90
2019-01-19T10:38:07.428Z,38.90
2019-01-19T10:40:33.963Z,38.90
2019-01-19T10:43:00.805Z,39.00
2019-01-19T10:45:27.341Z,38.90
2019-01-19T10:47:54.181Z,38.90
2019-01-19T10:50:20.715Z,39.00
2019-01-19T10:52:47.250Z,38.90
2019-01-19T10:55:14.092Z,38.90
2019-01-19T10:57:40.625Z,39.00
2019-01-19T11:00:07.470Z,38.90
2019-01-19T11:02:34.340Z,38.30
2019-01-19T11:05:01.159Z,36.70
2019-01-19T11:07:28.008Z,36.30
2019-01-19T11:09:54.935Z,36.00
2019-01-19T11:12:21.676Z,36.60
2019-01-19T11:14:48.211Z,37.60
2019-01-19T11:17:14.746Z,38.40
2019-01-19T11:19:41.287Z,38.80
2019-01-19T11:22:07.814Z,39.00
2019-01-19T11:24:34.356Z,39.20
2019-01-19T11:27:00.887Z,39.40
2019-01-19T11:29:27.418Z,39.20
2019-01-19T11:31:54.259Z,38.80
2019-01-19T11:34:20.796Z,38.50
2019-01-19T11:36:47.330Z,38.60
2019-01-19T11:39:14.170Z,38.70
2019-01-19T11:41:40.762Z,38.60
2019-01-19T11:44:07.550Z,38.10
2019-01-19T11:46:34.057Z,38.00
2019-01-19T11:49:00.615Z,37.50
2019-01-19T11:51:27.154Z,36.50
2019-01-19T11:53:53.687Z,36.10
2019-01-19T11:56:20.535Z,34.90
2019-01-19T11:58:47.068Z,33.40
2019-01-19T12:01:13.903Z,32.20
2019-01-19T12:03:40.803Z,32.00
2019-01-19T12:06:07.589Z,32.40
2019-01-19T12:08:35.043Z,32.70
2019-01-19T12:11:01.579Z,34.60
2019-01-19T12:13:28.111Z,36.00
2019-01-19T12:15:54.646Z,37.00
2019-01-19T12:18:21.181Z,37.90
2019-01-19T12:20:48.024Z,39.00
2019-01-19T12:23:14.936Z,38.80
2019-01-19T12:25:41.707Z,38.80
2019-01-19T12:28:08.242Z,38.80
2019-01-19T12:30:34.777Z,38.70
2019-01-19T12:33:01.653Z,38.70
2019-01-19T12:35:29.801Z,38.80
2019-01-19T12:37:56.530Z,39.00
2019-01-19T12:40:23.085Z,39.20
2019-01-19T12:42:50.934Z,39.50
2019-01-19T12:45:17.974Z,39.60
2019-01-19T12:47:44.509Z,39.70
2019-01-19T12:50:11.121Z,39.60
2019-01-19T12:52:37.884Z,39.70
2019-01-19T12:55:04.432Z,39.60
2019-01-19T12:57:31.264Z,39.70
2019-01-19T12:59:59.215Z,39.70
2019-01-19T13:02:26.174Z,39.60
2019-01-19T13:04:52.711Z,39.60
2019-01-19T13:07:19.550Z,39.20
2019-01-19T13:09:46.395Z,39.40
2019-01-19T13:12:13.234Z,39.30
2019-01-19T13:14:39.770Z,38.70
2019-01-19T13:17:06.611Z,37.80
2019-01-19T13:19:33.149Z,37.50
2019-01-19T13:21:59.680Z,37.60
2019-01-19T13:24:26.520Z,37.10
2019-01-19T13:26:53.058Z,36.40
2019-01-19T13:29:19.591Z,36.90
2019-01-19T13:31:46.124Z,36.80
2019-01-19T13:34:12.658Z,36.40
2019-01-19T13:36:39.499Z,36.20
2019-01-19T13:39:06.038Z,35.90
2019-01-19T13:41:32.876Z,35.20
2019-01-19T13:43:59.412Z,35.00
2019-01-19T13:46:25.946Z,35.50
2019-01-19T13:48:52.484Z,35.90
2019-01-19T13:51:19.017Z,36.10
2019-01-19T13:53:45.551Z,36.40
2019-01-19T13:56:12.085Z,36.60
2019-01-19T13:58:38.629Z,36.90
2019-01-19T14:01:05.156Z,37.30
2019-01-19T14:03:31.690Z,37.80
2019-01-19T14:05:58.529Z,38.10
2019-01-19T14:08:25.062Z,38.20
2019-01-19T14:10:51.599Z,38.40
2019-01-19T14:13:18.111Z,38.50
2019-01-19T14:15:44.670Z,38.60
2019-01-19T14:18:11.511Z,38.70
2019-01-19T14:20:38.046Z,38.80
2019-01-19T14:23:04.576Z,39.00
2019-01-19T14:25:31.116Z,39.10
2019-01-19T14:27:57.953Z,39.40
2019-01-19T14:30:24.795Z,39.50
2019-01-19T14:32:51.330Z,39.60
2019-01-19T14:35:17.866Z,39.80
2019-01-19T14:37:44.706Z,40.00
2019-01-19T14:40:11.231Z,40.10
2019-01-19T14:42:38.070Z,39.80
2019-01-19T14:45:04.617Z,40.00
2019-01-19T14:47:31.150Z,40.10
2019-01-19T14:49:58.001Z,40.10
2019-01-19T14:52:24.527Z,40.20
2019-01-19T14:54:51.369Z,40.30
2019-01-19T14:57:17.982Z,40.30
2019-01-19T14:59:44.747Z,40.50
2019-01-19T15:02:11.279Z,40.40
2019-01-19T15:04:37.815Z,40.60
2019-01-19T15:07:04.655Z,40.60
2019-01-19T15:09:31.197Z,40.60
2019-01-19T15:11:57.734Z,40.70
2019-01-19T15:14:24.259Z,40.60
2019-01-19T15:16:50.798Z,40.80
2019-01-19T15:19:17.637Z,40.80
2019-01-19T15:21:44.482Z,40.70
2019-01-19T15:24:11.012Z,40.80
2019-01-19T15:26:37.547Z,40.80
2019-01-19T15:29:04.388Z,40.80
2019-01-19T15:31:30.923Z,40.80
2019-01-19T15:33:57.763Z,41.00
2019-01-19T15:36:24.298Z,40.90
2019-01-19T15:38:50.834Z,41.00
2019-01-19T15:41:17.367Z,40.90
2019-01-19T15:43:43.904Z,41.00
2019-01-19T15:46:10.447Z,41.10
2019-01-19T15:48:37.052Z,41.00
2019-01-19T15:51:03.814Z,41.20
2019-01-19T15:53:30.349Z,41.10
2019-01-19T15:55:57.202Z,41.20
2019-01-19T15:58:23.725Z,41.20
2019-01-19T16:00:50.603Z,41.20
2019-01-19T16:03:17.411Z,41.20
2019-01-19T16:05:43.943Z,41.20
2019-01-19T16:08:10.479Z,41.20
2019-01-19T16:10:37.323Z,41.20
2019-01-19T16:13:04.161Z,41.20
2019-01-19T16:15:31.004Z,41.20
2019-01-19T16:17:57.842Z,41.30
2019-01-19T16:20:24.377Z,41.30
2019-01-19T16:22:51.219Z,41.40
2019-01-19T16:25:17.753Z,41.30
2019-01-19T16:27:44.289Z,41.30
2019-01-19T16:30:10.827Z,41.10
2019-01-19T16:32:37.360Z,41.00
2019-01-19T16:35:03.893Z,41.30
2019-01-19T16:37:30.429Z,41.20
2019-01-19T16:39:56.973Z,41.40
2019-01-19T16:42:23.803Z,41.40
2019-01-19T16:44:50.347Z,41.40
2019-01-19T16:47:16.871Z,41.50
2019-01-19T16:49:43.410Z,41.40
2019-01-19T16:52:09.946Z,41.40
2019-01-19T16:54:36.782Z,41.50
2019-01-19T16:57:03.624Z,41.40
2019-01-19T16:59:30.158Z,41.40
2019-01-19T17:01:56.692Z,41.30
2019-01-19T17:04:23.227Z,41.40
2019-01-19T17:06:50.077Z,41.40
2019-01-19T17:09:16.604Z,41.40
2019-01-19T17:11:43.445Z,41.30
2019-01-19T17:14:09.981Z,41.40
2019-01-19T17:16:36.513Z,41.20
2019-01-19T17:19:03.362Z,41.40
2019-01-19T17:21:29.892Z,41.40
2019-01-19T17:23:56.425Z,41.40
2019-01-19T17:26:22.960Z,41.50
2019-01-19T17:28:49.495Z,41.40
2019-01-19T17:31:16.335Z,41.50
2019-01-19T17:33:42.874Z,41.50
2019-01-19T17:36:09.711Z,41.40
2019-01-19T17:38:36.553Z,41.40
2019-01-19T17:41:03.093Z,41.50
2019-01-19T17:43:29.933Z,41.50
2019-01-19T17:45:56.771Z,41.50
2019-01-19T17:48:23.306Z,41.50
2019-01-19T17:50:50.155Z,41.50
2019-01-19T17:53:16.744Z,41.50
2019-01-19T17:55:43.524Z,41.50
2019-01-19T17:58:10.059Z,41.40
2019-01-19T18:00:36.597Z,41.40
2019-01-19T18:03:03.434Z,41.30
2019-01-19T18:05:29.969Z,42.20
2019-01-19T18:07:56.814Z,41.50
2019-01-19T18:10:23.654Z,41.50
2019-01-19T18:12:50.204Z,41.50
2019-01-19T18:15:16.725Z,41.50
2019-01-19T18:17:43.257Z,41.40
2019-01-19T18:20:10.097Z,41.60
2019-01-19T18:22:36.633Z,41.60
2019-01-19T18:25:03.169Z,41.50
2019-01-19T18:27:30.012Z,41.50
2019-01-19T18:29:56.545Z,41.50
2019-01-19T18:32:23.390Z,41.60
2019-01-19T18:34:49.919Z,41.50
2019-01-19T18:37:16.465Z,41.50
2019-01-19T18:39:42.987Z,41.50
2019-01-19T18:42:09.836Z,41.70
2019-01-19T18:44:37.014Z,41.50
2019-01-19T18:47:03.852Z,41.50
2019-01-19T18:49:30.678Z,41.50
2019-01-19T18:51:57.510Z,41.50
2019-01-19T18:54:24.354Z,41.50
2019-01-19T18:56:51.188Z,41.40
2019-01-19T18:59:17.728Z,41.50
2019-01-19T19:01:44.259Z,41.40
2019-01-19T19:04:11.100Z,41.60
2019-01-19T19:06:37.941Z,41.50
2019-01-19T19:09:04.782Z,41.40
2019-01-19T19:11:31.316Z,41.40
2019-01-19T19:13:57.857Z,41.50
2019-01-19T19:16:24.696Z,41.50
2019-01-19T19:18:51.533Z,41.60
2019-01-19T19:21:18.378Z,41.50
2019-01-19T19:23:45.217Z,41.50
2019-01-19T19:26:11.752Z,41.40
2019-01-19T19:28:38.286Z,41.40
2019-01-19T19:31:05.137Z,41.40
2019-01-19T19:33:31.969Z,41.50
2019-01-19T19:35:58.507Z,41.40
2019-01-19T19:38:25.046Z,41.50
2019-01-19T19:40:51.883Z,41.40
2019-01-19T19:43:18.418Z,41.60
2019-01-19T19:45:45.258Z,41.30
2019-01-19T19:48:11.790Z,41.40
2019-01-19T19:50:38.633Z,41.50
2019-01-19T19:53:05.176Z,41.40
2019-01-19T19:55:31.706Z,41.50
2019-01-19T19:57:58.544Z,41.50
2019-01-19T20:00:25.080Z,41.50
2019-01-19T20:02:51.922Z,41.60
2019-01-19T20:05:18.454Z,41.50
2019-01-19T20:07:45.296Z,41.20
2019-01-19T20:10:17.007Z,41.40
2019-01-19T20:12:40.209Z,41.50
2019-01-19T20:15:06.743Z,41.40
2019-01-19T20:17:33.281Z,41.50
2019-01-19T20:19:59.813Z,41.30
2019-01-19T20:22:28.503Z,41.40
2019-01-19T20:24:55.339Z,41.50
2019-01-19T20:27:22.180Z,41.20
2019-01-19T20:29:48.740Z,41.40
2019-01-19T20:32:15.622Z,41.40
2019-01-19T20:34:42.398Z,41.50
2019-01-19T20:37:08.933Z,41.40
2019-01-19T20:39:35.466Z,41.40
2019-01-19T20:42:02.003Z,41.30
2019-01-19T20:44:28.848Z,41.30
2019-01-19T20:46:55.377Z,41.30
2019-01-19T20:49:22.220Z,41.40
2019-01-19T20:51:48.754Z,41.50
2019-01-19T20:54:15.595Z,41.40
2019-01-19T20:56:42.439Z,41.30
2019-01-19T20:59:08.985Z,41.30
2019-01-19T21:01:35.507Z,41.30
2019-01-19T21:04:02.041Z,41.40
2019-01-19T21:06:28.883Z,41.40
2019-01-19T21:08:55.724Z,41.40
2019-01-19T21:11:22.566Z,41.30
2019-01-19T21:13:49.102Z,41.50
2019-01-19T21:16:15.635Z,41.50
2019-01-19T21:18:42.478Z,41.30
2019-01-19T21:21:09.318Z,41.40
2019-01-19T21:23:36.160Z,41.40
2019-01-19T21:26:03.002Z,41.40
2019-01-19T21:28:29.844Z,41.30
2019-01-19T21:30:56.380Z,41.20
2019-01-19T21:33:23.219Z,41.20
2019-01-19T21:35:50.070Z,41.30
2019-01-19T21:38:16.907Z,41.20
2019-01-19T21:40:43.444Z,41.40
2019-01-19T21:43:10.280Z,41.40
2019-01-19T21:45:37.120Z,41.30
2019-01-19T21:48:03.661Z,41.30
2019-01-19T21:50:30.499Z,41.30
2019-01-19T21:52:57.032Z,41.30
2019-01-19T21:55:23.569Z,41.40
2019-01-19T21:57:50.410Z,41.20
2019-01-19T22:00:17.250Z,41.30
2019-01-19T22:02:44.092Z,41.40
2019-01-19T22:05:10.935Z,41.30
2019-01-19T22:07:37.775Z,41.30
2019-01-19T22:10:04.312Z,41.90
2019-01-19T22:12:31.151Z,41.30
2019-01-19T22:14:57.998Z,41.30
2019-01-19T22:17:24.576Z,41.30
2019-01-19T22:19:51.374Z,41.30
2019-01-19T22:22:17.914Z,41.50
2019-01-19T22:24:44.746Z,41.20
2019-01-19T22:27:11.606Z,41.30
2019-01-19T22:29:38.430Z,41.20
2019-01-19T22:32:04.965Z,41.20
2019-01-19T22:34:31.804Z,41.10
2019-01-19T22:36:58.355Z,41.30
2019-01-19T22:39:25.520Z,41.20
2019-01-19T22:41:52.558Z,41.20
2019-01-19T22:44:19.175Z,41.20
2019-01-19T22:46:45.708Z,41.20
2019-01-19T22:49:12.241Z,41.20
2019-01-19T22:51:39.083Z,41.40
2019-01-19T22:54:05.927Z,41.30
2019-01-19T22:56:32.465Z,41.30
2019-01-19T22:58:59.066Z,41.20
2019-01-19T23:01:25.835Z,41.20
2019-01-19T23:03:52.676Z,41.30
2019-01-19T23:06:19.519Z,41.30
2019-01-19T23:08:46.052Z,41.20
2019-01-19T23:11:12.894Z,41.30
2019-01-19T23:13:39.433Z,41.30
2019-01-19T23:16:06.273Z,41.20
2019-01-19T23:18:32.806Z,41.20
2019-01-19T23:20:59.340Z,41.30
2019-01-19T23:23:25.875Z,41.20
2019-01-19T23:25:52.715Z,41.30
2019-01-19T23:28:19.557Z,41.20
2019-01-19T23:30:46.399Z,41.30
2019-01-19T23:33:12.933Z,42.00
2019-01-19T23:35:39.570Z,41.30
2019-01-19T23:38:06.371Z,41.20
2019-01-19T23:40:33.151Z,41.20
2019-01-19T23:42:59.999Z,41.20
2019-01-19T23:45:26.529Z,41.20
2019-01-19T23:47:53.370Z,41.30
2019-01-19T23:50:19.912Z,41.10
2019-01-19T23:52:46.748Z,41.20
2019-01-19T23:55:13.280Z,41.10
2019-01-19T23:57:39.817Z,41.20
